sensor_id;sensor_type;location;lat;lon;timestamp;temperature;humidity
29571;DHT22;16814;52.118;11.436;2022-09-01T00:01:14;14.10;99.90
29571;DHT22;16814;52.118;11.436;2022-09-01T00:03:48;14.20;99.90
29571;DHT22;16814;52.118;11.436;2022-09-01T00:06:14;14.20;99.90
29571;DHT22;16814;52.118;11.436;2022-09-01T00:08:40;14.20;99.90
29571;DHT22;16814;52.118;11.436;2022-09-01T00:11:06;14.20;99.90
29571;DHT22;16814;52.118;11.436;2022-09-01T00:13:32;14.20;99.90
29571;DHT22;16814;52.118;11.436;2022-09-01T00:15:59;14.30;99.90
29571;DHT22;16814;52.118;11.436;2022-09-01T00:18:25;14.30;99.90
29571;DHT22;16814;52.118;11.436;2022-09-01T00:20:50;14.20;99.90
29571;DHT22;16814;52.118;11.436;2022-09-01T00:23:16;14.20;99.90
29571;DHT22;16814;52.118;11.436;2022-09-01T00:25:42;14.10;99.90
29571;DHT22;16814;52.118;11.436;2022-09-01T00:28:08;14.10;99.90
29571;DHT22;16814;52.118;11.436;2022-09-01T00:30:33;14.00;99.90
29571;DHT22;16814;52.118;11.436;2022-09-01T00:32:59;14.00;99.90
29571;DHT22;16814;52.118;11.436;2022-09-01T00:35:24;14.00;99.90
29571;DHT22;16814;52.118;11.436;2022-09-01T00:37:50;14.10;99.90
29571;DHT22;16814;52.118;11.436;2022-09-01T00:40:16;14.00;99.90
29571;DHT22;16814;52.118;11.436;2022-09-01T00:42:42;13.90;99.90
29571;DHT22;16814;52.118;11.436;2022-09-01T00:45:09;13.90;99.90
29571;DHT22;16814;52.118;11.436;2022-09-01T00:47:36;13.90;99.90
29571;DHT22;16814;52.118;11.436;2022-09-01T00:50:05;14.00;99.90
29571;DHT22;16814;52.118;11.436;2022-09-01T00:52:35;14.00;99.90
29571;DHT22;16814;52.118;11.436;2022-09-01T00:55:09;14.00;99.90
29571;DHT22;16814;52.118;11.436;2022-09-01T00:57:36;14.10;99.90
29571;DHT22;16814;52.118;11.436;2022-09-01T01:00:10;14.10;99.90
29571;DHT22;16814;52.118;11.436;2022-09-01T01:02:37;14.10;99.90
29571;DHT22;16814;52.118;11.436;2022-09-01T01:05:05;14.00;99.90
29571;DHT22;16814;52.118;11.436;2022-09-01T01:07:31;14.00;99.90
29571;DHT22;16814;52.118;11.436;2022-09-01T01:10:01;14.00;99.90
29571;DHT22;16814;52.118;11.436;2022-09-01T01:12:27;13.60;99.90
29571;DHT22;16814;52.118;11.436;2022-09-01T01:14:55;13.60;99.90
29571;DHT22;16814;52.118;11.436;2022-09-01T01:17:22;13.40;99.90
29571;DHT22;16814;52.118;11.436;2022-09-01T01:19:51;13.60;99.90
29571;DHT22;16814;52.118;11.436;2022-09-01T01:22:51;13.40;99.90
29571;DHT22;16814;52.118;11.436;2022-09-01T01:25:29;13.30;99.90
29571;DHT22;16814;52.118;11.436;2022-09-01T01:28:07;13.30;99.90
29571;DHT22;16814;52.118;11.436;2022-09-01T01:30:34;13.50;99.90
29571;DHT22;16814;52.118;11.436;2022-09-01T01:32:59;13.60;99.90
29571;DHT22;16814;52.118;11.436;2022-09-01T01:35:26;13.70;99.90
29571;DHT22;16814;52.118;11.436;2022-09-01T01:37:52;13.70;99.90
29571;DHT22;16814;52.118;11.436;2022-09-01T01:40:20;13.70;99.90
29571;DHT22;16814;52.118;11.436;2022-09-01T01:42:50;13.80;99.90
29571;DHT22;16814;52.118;11.436;2022-09-01T01:45:19;13.80;99.90
29571;DHT22;16814;52.118;11.436;2022-09-01T01:47:47;13.70;99.90
29571;DHT22;16814;52.118;11.436;2022-09-01T01:50:25;13.60;99.90
29571;DHT22;16814;52.118;11.436;2022-09-01T01:52:51;13.50;99.90
29571;DHT22;16814;52.118;11.436;2022-09-01T01:55:17;13.50;99.90
29571;DHT22;16814;52.118;11.436;2022-09-01T01:57:45;13.50;99.90
29571;DHT22;16814;52.118;11.436;2022-09-01T02:00:16;13.40;99.90
29571;DHT22;16814;52.118;11.436;2022-09-01T02:02:45;13.40;99.90
29571;DHT22;16814;52.118;11.436;2022-09-01T02:05:25;13.40;99.90
29571;DHT22;16814;52.118;11.436;2022-09-01T02:08:04;13.50;99.90
29571;DHT22;16814;52.118;11.436;2022-09-01T02:10:39;13.50;99.90
29571;DHT22;16814;52.118;11.436;2022-09-01T02:13:07;13.50;99.90
29571;DHT22;16814;52.118;11.436;2022-09-01T02:15:36;13.50;99.90
29571;DHT22;16814;52.118;11.436;2022-09-01T02:18:20;13.60;99.90
29571;DHT22;16814;52.118;11.436;2022-09-01T02:20:49;13.60;99.90
29571;DHT22;16814;52.118;11.436;2022-09-01T02:23:16;13.50;99.90
29571;DHT22;16814;52.118;11.436;2022-09-01T02:25:45;13.50;99.90
29571;DHT22;16814;52.118;11.436;2022-09-01T02:28:12;13.60;99.90
29571;DHT22;16814;52.118;11.436;2022-09-01T02:30:46;13.70;99.90
29571;DHT22;16814;52.118;11.436;2022-09-01T02:33:14;13.70;99.90
29571;DHT22;16814;52.118;11.436;2022-09-01T02:35:47;13.70;99.90
29571;DHT22;16814;52.118;11.436;2022-09-01T02:38:13;13.80;99.90
29571;DHT22;16814;52.118;11.436;2022-09-01T02:40:43;14.20;99.90
29571;DHT22;16814;52.118;11.436;2022-09-01T02:43:11;13.70;99.90
29571;DHT22;16814;52.118;11.436;2022-09-01T02:45:38;13.80;99.90
29571;DHT22;16814;52.118;11.436;2022-09-01T02:48:04;13.80;99.90
29571;DHT22;16814;52.118;11.436;2022-09-01T02:50:40;13.90;99.90
29571;DHT22;16814;52.118;11.436;2022-09-01T02:53:07;13.90;99.90
29571;DHT22;16814;52.118;11.436;2022-09-01T02:55:40;13.80;99.90
29571;DHT22;16814;52.118;11.436;2022-09-01T02:58:06;13.90;99.90
29571;DHT22;16814;52.118;11.436;2022-09-01T03:00:35;13.90;99.90
29571;DHT22;16814;52.118;11.436;2022-09-01T03:03:02;13.90;99.90
29571;DHT22;16814;52.118;11.436;2022-09-01T03:05:29;13.90;99.90
29571;DHT22;16814;52.118;11.436;2022-09-01T03:07:58;13.90;99.90
29571;DHT22;16814;52.118;11.436;2022-09-01T03:10:27;13.90;99.90
29571;DHT22;16814;52.118;11.436;2022-09-01T03:13:05;14.10;99.90
29571;DHT22;16814;52.118;11.436;2022-09-01T03:15:34;14.10;99.90
29571;DHT22;16814;52.118;11.436;2022-09-01T03:18:02;14.20;99.90
29571;DHT22;16814;52.118;11.436;2022-09-01T03:20:29;14.20;99.90
29571;DHT22;16814;52.118;11.436;2022-09-01T03:22:57;14.40;99.90
29571;DHT22;16814;52.118;11.436;2022-09-01T03:25:24;14.30;99.90
29571;DHT22;16814;52.118;11.436;2022-09-01T03:27:51;14.30;99.90
29571;DHT22;16814;52.118;11.436;2022-09-01T03:30:17;14.30;99.90
29571;DHT22;16814;52.118;11.436;2022-09-01T03:32:42;14.20;99.90
29571;DHT22;16814;52.118;11.436;2022-09-01T03:35:09;14.30;99.90
29571;DHT22;16814;52.118;11.436;2022-09-01T03:37:35;14.20;99.90
29571;DHT22;16814;52.118;11.436;2022-09-01T03:40:03;14.30;99.90
29571;DHT22;16814;52.118;11.436;2022-09-01T03:42:29;14.40;99.90
29571;DHT22;16814;52.118;11.436;2022-09-01T03:44:55;14.40;99.90
29571;DHT22;16814;52.118;11.436;2022-09-01T03:47:21;14.40;99.90
29571;DHT22;16814;52.118;11.436;2022-09-01T03:49:49;14.30;99.90
29571;DHT22;16814;52.118;11.436;2022-09-01T03:52:18;14.30;99.90
29571;DHT22;16814;52.118;11.436;2022-09-01T03:54:43;14.30;99.90
29571;DHT22;16814;52.118;11.436;2022-09-01T03:57:10;14.30;99.90
29571;DHT22;16814;52.118;11.436;2022-09-01T03:59:36;14.40;99.90
29571;DHT22;16814;52.118;11.436;2022-09-01T04:02:03;14.50;99.90
29571;DHT22;16814;52.118;11.436;2022-09-01T04:04:29;14.50;99.90
29571;DHT22;16814;52.118;11.436;2022-09-01T04:06:58;14.50;99.90
29571;DHT22;16814;52.118;11.436;2022-09-01T04:09:26;14.40;99.90
29571;DHT22;16814;52.118;11.436;2022-09-01T04:11:52;14.50;99.90
29571;DHT22;16814;52.118;11.436;2022-09-01T04:14:18;14.50;99.90
29571;DHT22;16814;52.118;11.436;2022-09-01T04:16:44;14.40;99.90
29571;DHT22;16814;52.118;11.436;2022-09-01T04:19:33;14.30;99.90
29571;DHT22;16814;52.118;11.436;2022-09-01T04:22:01;14.30;99.90
29571;DHT22;16814;52.118;11.436;2022-09-01T04:24:28;14.40;99.90
29571;DHT22;16814;52.118;11.436;2022-09-01T04:26:56;14.40;99.90
29571;DHT22;16814;52.118;11.436;2022-09-01T04:29:24;14.50;99.90
29571;DHT22;16814;52.118;11.436;2022-09-01T04:31:58;14.40;99.90
29571;DHT22;16814;52.118;11.436;2022-09-01T04:34:26;14.40;99.90
29571;DHT22;16814;52.118;11.436;2022-09-01T04:36:52;14.40;99.90
29571;DHT22;16814;52.118;11.436;2022-09-01T04:39:20;14.40;99.90
29571;DHT22;16814;52.118;11.436;2022-09-01T04:41:45;14.50;99.90
29571;DHT22;16814;52.118;11.436;2022-09-01T04:44:11;14.40;99.90
29571;DHT22;16814;52.118;11.436;2022-09-01T04:46:41;14.60;99.90
29571;DHT22;16814;52.118;11.436;2022-09-01T04:49:08;14.30;99.90
29571;DHT22;16814;52.118;11.436;2022-09-01T04:51:39;14.30;99.90
29571;DHT22;16814;52.118;11.436;2022-09-01T04:54:06;14.40;99.90
29571;DHT22;16814;52.118;11.436;2022-09-01T04:56:37;14.40;99.90
29571;DHT22;16814;52.118;11.436;2022-09-01T04:59:03;14.40;99.90
29571;DHT22;16814;52.118;11.436;2022-09-01T05:01:32;14.40;99.90
29571;DHT22;16814;52.118;11.436;2022-09-01T05:04:12;14.40;99.90
29571;DHT22;16814;52.118;11.436;2022-09-01T05:06:40;14.40;99.90
29571;DHT22;16814;52.118;11.436;2022-09-01T05:09:07;14.70;99.90
29571;DHT22;16814;52.118;11.436;2022-09-01T05:11:34;14.60;99.90
29571;DHT22;16814;52.118;11.436;2022-09-01T05:14:01;14.60;99.90
29571;DHT22;16814;52.118;11.436;2022-09-01T05:16:29;14.60;99.90
29571;DHT22;16814;52.118;11.436;2022-09-01T05:18:55;14.60;99.90
29571;DHT22;16814;52.118;11.436;2022-09-01T05:21:22;14.60;99.90
29571;DHT22;16814;52.118;11.436;2022-09-01T05:23:52;14.80;99.90
29571;DHT22;16814;52.118;11.436;2022-09-01T05:26:25;14.60;99.90
29571;DHT22;16814;52.118;11.436;2022-09-01T05:28:57;14.70;99.90
29571;DHT22;16814;52.118;11.436;2022-09-01T05:31:25;14.70;99.90
29571;DHT22;16814;52.118;11.436;2022-09-01T05:33:52;14.70;99.90
29571;DHT22;16814;52.118;11.436;2022-09-01T05:36:20;14.80;99.90
29571;DHT22;16814;52.118;11.436;2022-09-01T05:38:47;14.70;99.90
29571;DHT22;16814;52.118;11.436;2022-09-01T05:41:15;14.70;99.90
29571;DHT22;16814;52.118;11.436;2022-09-01T05:43:43;14.70;99.90
29571;DHT22;16814;52.118;11.436;2022-09-01T05:46:15;14.90;99.90
29571;DHT22;16814;52.118;11.436;2022-09-01T05:48:43;14.90;99.90
29571;DHT22;16814;52.118;11.436;2022-09-01T05:51:11;14.80;99.90
29571;DHT22;16814;52.118;11.436;2022-09-01T05:53:40;14.90;99.90
29571;DHT22;16814;52.118;11.436;2022-09-01T05:56:08;15.10;99.90
29571;DHT22;16814;52.118;11.436;2022-09-01T05:58:38;15.00;99.90
29571;DHT22;16814;52.118;11.436;2022-09-01T06:01:05;15.00;99.90
29571;DHT22;16814;52.118;11.436;2022-09-01T06:03:31;15.00;99.90
29571;DHT22;16814;52.118;11.436;2022-09-01T06:06:02;15.10;99.90
29571;DHT22;16814;52.118;11.436;2022-09-01T06:08:30;15.20;99.90
29571;DHT22;16814;52.118;11.436;2022-09-01T06:10:55;15.30;99.90
29571;DHT22;16814;52.118;11.436;2022-09-01T06:13:21;15.40;99.90
29571;DHT22;16814;52.118;11.436;2022-09-01T06:15:50;15.60;99.90
29571;DHT22;16814;52.118;11.436;2022-09-01T06:18:18;15.60;99.90
29571;DHT22;16814;52.118;11.436;2022-09-01T06:20:46;15.80;99.90
29571;DHT22;16814;52.118;11.436;2022-09-01T06:23:13;15.90;99.90
29571;DHT22;16814;52.118;11.436;2022-09-01T06:25:40;16.50;99.90
29571;DHT22;16814;52.118;11.436;2022-09-01T06:28:06;16.10;99.90
29571;DHT22;16814;52.118;11.436;2022-09-01T06:30:33;16.10;99.90
29571;DHT22;16814;52.118;11.436;2022-09-01T06:33:01;16.20;99.90
29571;DHT22;16814;52.118;11.436;2022-09-01T06:35:29;16.30;99.90
29571;DHT22;16814;52.118;11.436;2022-09-01T06:37:55;16.50;99.90
29571;DHT22;16814;52.118;11.436;2022-09-01T06:40:23;16.50;99.90
29571;DHT22;16814;52.118;11.436;2022-09-01T06:42:50;16.60;99.90
29571;DHT22;16814;52.118;11.436;2022-09-01T06:45:19;16.80;99.90
29571;DHT22;16814;52.118;11.436;2022-09-01T06:47:45;16.90;99.90
29571;DHT22;16814;52.118;11.436;2022-09-01T06:50:14;17.60;99.90
29571;DHT22;16814;52.118;11.436;2022-09-01T06:52:41;18.60;99.90
29571;DHT22;16814;52.118;11.436;2022-09-01T06:55:09;19.70;99.90
29571;DHT22;16814;52.118;11.436;2022-09-01T06:57:36;20.70;99.90
29571;DHT22;16814;52.118;11.436;2022-09-01T07:00:05;20.90;99.60
29571;DHT22;16814;52.118;11.436;2022-09-01T07:02:33;21.20;97.20
29571;DHT22;16814;52.118;11.436;2022-09-01T07:05:00;21.40;96.80
29571;DHT22;16814;52.118;11.436;2022-09-01T07:07:27;21.60;96.30
29571;DHT22;16814;52.118;11.436;2022-09-01T07:09:57;21.90;94.70
29571;DHT22;16814;52.118;11.436;2022-09-01T07:12:23;22.10;93.60
29571;DHT22;16814;52.118;11.436;2022-09-01T07:14:48;22.10;93.30
29571;DHT22;16814;52.118;11.436;2022-09-01T07:17:14;22.00;93.20
29571;DHT22;16814;52.118;11.436;2022-09-01T07:19:40;22.00;91.80
29571;DHT22;16814;52.118;11.436;2022-09-01T07:22:05;21.90;91.60
29571;DHT22;16814;52.118;11.436;2022-09-01T07:24:31;21.50;92.00
29571;DHT22;16814;52.118;11.436;2022-09-01T07:26:58;21.20;92.00
29571;DHT22;16814;52.118;11.436;2022-09-01T07:29:23;20.90;93.30
29571;DHT22;16814;52.118;11.436;2022-09-01T07:31:50;21.10;93.50
29571;DHT22;16814;52.118;11.436;2022-09-01T07:34:18;21.10;93.50
29571;DHT22;16814;52.118;11.436;2022-09-01T07:36:44;20.80;93.10
29571;DHT22;16814;52.118;11.436;2022-09-01T07:39:12;20.60;93.30
29571;DHT22;16814;52.118;11.436;2022-09-01T07:41:38;20.40;94.20
29571;DHT22;16814;52.118;11.436;2022-09-01T07:44:08;20.20;94.40
29571;DHT22;16814;52.118;11.436;2022-09-01T07:46:39;20.50;94.40
29571;DHT22;16814;52.118;11.436;2022-09-01T07:49:06;20.60;93.70
29571;DHT22;16814;52.118;11.436;2022-09-01T07:51:32;20.90;93.60
29571;DHT22;16814;52.118;11.436;2022-09-01T07:53:59;21.00;92.70
29571;DHT22;16814;52.118;11.436;2022-09-01T07:56:27;20.80;92.00
29571;DHT22;16814;52.118;11.436;2022-09-01T07:58:56;20.80;92.70
29571;DHT22;16814;52.118;11.436;2022-09-01T08:01:24;21.00;92.20
29571;DHT22;16814;52.118;11.436;2022-09-01T08:03:57;20.90;93.20
29571;DHT22;16814;52.118;11.436;2022-09-01T08:06:27;21.10;92.20
29571;DHT22;16814;52.118;11.436;2022-09-01T08:08:55;21.30;92.40
29571;DHT22;16814;52.118;11.436;2022-09-01T08:11:26;21.60;92.20
29571;DHT22;16814;52.118;11.436;2022-09-01T08:13:53;21.90;91.40
29571;DHT22;16814;52.118;11.436;2022-09-01T08:16:19;21.80;91.90
29571;DHT22;16814;52.118;11.436;2022-09-01T08:18:46;21.90;91.80
29571;DHT22;16814;52.118;11.436;2022-09-01T08:21:14;21.90;92.50
29571;DHT22;16814;52.118;11.436;2022-09-01T08:23:43;22.10;92.70
29571;DHT22;16814;52.118;11.436;2022-09-01T08:26:13;22.70;91.70
29571;DHT22;16814;52.118;11.436;2022-09-01T08:28:40;23.00;91.80
29571;DHT22;16814;52.118;11.436;2022-09-01T08:31:12;23.00;89.70
29571;DHT22;16814;52.118;11.436;2022-09-01T08:33:41;23.20;87.80
29571;DHT22;16814;52.118;11.436;2022-09-01T08:36:11;23.20;87.50
29571;DHT22;16814;52.118;11.436;2022-09-01T08:38:38;22.60;88.80
29571;DHT22;16814;52.118;11.436;2022-09-01T08:41:15;22.70;89.30
29571;DHT22;16814;52.118;11.436;2022-09-01T08:46:28;22.40;88.60
29571;DHT22;16814;52.118;11.436;2022-09-01T08:48:57;22.60;86.50
29571;DHT22;16814;52.118;11.436;2022-09-01T08:51:37;22.80;86.70
29571;DHT22;16814;52.118;11.436;2022-09-01T08:57:19;23.50;84.40
29571;DHT22;16814;52.118;11.436;2022-09-01T08:59:46;23.40;83.20
29571;DHT22;16814;52.118;11.436;2022-09-01T09:08:20;23.70;80.20
29571;DHT22;16814;52.118;11.436;2022-09-01T09:16:38;23.80;78.90
29571;DHT22;16814;52.118;11.436;2022-09-01T09:19:10;23.60;77.80
29571;DHT22;16814;52.118;11.436;2022-09-01T09:21:42;23.50;73.00
29571;DHT22;16814;52.118;11.436;2022-09-01T09:24:31;23.80;70.30
29571;DHT22;16814;52.118;11.436;2022-09-01T09:27:20;24.00;70.90
29571;DHT22;16814;52.118;11.436;2022-09-01T09:32:51;24.30;69.70
29571;DHT22;16814;52.118;11.436;2022-09-01T09:35:41;24.50;70.50
29571;DHT22;16814;52.118;11.436;2022-09-01T09:41:04;24.00;70.90
29571;DHT22;16814;52.118;11.436;2022-09-01T09:43:41;24.20;71.90
29571;DHT22;16814;52.118;11.436;2022-09-01T09:46:33;24.30;69.90
29571;DHT22;16814;52.118;11.436;2022-09-01T09:51:31;24.40;67.10
29571;DHT22;16814;52.118;11.436;2022-09-01T09:54:20;24.60;68.30
29571;DHT22;16814;52.118;11.436;2022-09-01T09:56:47;24.60;64.80
29571;DHT22;16814;52.118;11.436;2022-09-01T09:59:28;24.30;67.60
29571;DHT22;16814;52.118;11.436;2022-09-01T10:02:02;24.40;67.00
29571;DHT22;16814;52.118;11.436;2022-09-01T10:04:38;24.00;69.40
29571;DHT22;16814;52.118;11.436;2022-09-01T10:07:29;24.40;69.40
29571;DHT22;16814;52.118;11.436;2022-09-01T10:09:58;24.20;71.20
29571;DHT22;16814;52.118;11.436;2022-09-01T10:12:25;24.20;70.10
29571;DHT22;16814;52.118;11.436;2022-09-01T10:15:06;24.40;69.20
29571;DHT22;16814;52.118;11.436;2022-09-01T10:17:41;24.80;70.40
29571;DHT22;16814;52.118;11.436;2022-09-01T10:20:22;25.10;67.50
29571;DHT22;16814;52.118;11.436;2022-09-01T10:22:49;25.10;66.20
29571;DHT22;16814;52.118;11.436;2022-09-01T10:25:19;24.90;64.80
29571;DHT22;16814;52.118;11.436;2022-09-01T10:27:53;25.00;64.70
29571;DHT22;16814;52.118;11.436;2022-09-01T10:30:21;25.10;64.20
29571;DHT22;16814;52.118;11.436;2022-09-01T10:32:57;25.20;64.90
29571;DHT22;16814;52.118;11.436;2022-09-01T10:35:25;25.20;60.70
29571;DHT22;16814;52.118;11.436;2022-09-01T10:37:52;25.20;61.50
29571;DHT22;16814;52.118;11.436;2022-09-01T10:40:34;25.00;59.90
29571;DHT22;16814;52.118;11.436;2022-09-01T10:43:33;24.80;61.50
29571;DHT22;16814;52.118;11.436;2022-09-01T10:46:07;24.50;61.20
29571;DHT22;16814;52.118;11.436;2022-09-01T10:48:33;24.30;62.70
29571;DHT22;16814;52.118;11.436;2022-09-01T10:53:40;24.50;62.40
29571;DHT22;16814;52.118;11.436;2022-09-01T11:05:08;24.70;59.90
29571;DHT22;16814;52.118;11.436;2022-09-01T11:09:45;24.70;57.40
29571;DHT22;16814;52.118;11.436;2022-09-01T11:15:40;23.80;58.80
29571;DHT22;16814;52.118;11.436;2022-09-01T11:18:13;24.10;60.30
29571;DHT22;16814;52.118;11.436;2022-09-01T11:20:40;24.30;59.40
29571;DHT22;16814;52.118;11.436;2022-09-01T11:23:29;23.90;61.10
29571;DHT22;16814;52.118;11.436;2022-09-01T11:26:00;24.10;62.00
29571;DHT22;16814;52.118;11.436;2022-09-01T11:31:10;24.00;60.20
29571;DHT22;16814;52.118;11.436;2022-09-01T11:36:26;23.70;60.80
29571;DHT22;16814;52.118;11.436;2022-09-01T11:41:34;23.40;63.90
29571;DHT22;16814;52.118;11.436;2022-09-01T11:44:14;23.50;62.90
29571;DHT22;16814;52.118;11.436;2022-09-01T11:46:41;23.60;64.20
29571;DHT22;16814;52.118;11.436;2022-09-01T11:49:33;23.10;65.60
29571;DHT22;16814;52.118;11.436;2022-09-01T11:52:00;22.90;65.50
29571;DHT22;16814;52.118;11.436;2022-09-01T11:54:28;22.50;66.80
29571;DHT22;16814;52.118;11.436;2022-09-01T11:56:54;22.50;67.10
29571;DHT22;16814;52.118;11.436;2022-09-01T11:59:31;22.40;67.60
29571;DHT22;16814;52.118;11.436;2022-09-01T12:01:57;22.40;66.00
29571;DHT22;16814;52.118;11.436;2022-09-01T12:04:25;22.50;66.30
29571;DHT22;16814;52.118;11.436;2022-09-01T12:06:58;22.70;66.20
29571;DHT22;16814;52.118;11.436;2022-09-01T12:09:38;22.90;66.70
29571;DHT22;16814;52.118;11.436;2022-09-01T12:12:29;22.80;67.60
29571;DHT22;16814;52.118;11.436;2022-09-01T12:15:21;23.00;66.70
29571;DHT22;16814;52.118;11.436;2022-09-01T12:17:47;22.80;67.40
29571;DHT22;16814;52.118;11.436;2022-09-01T12:20:29;22.80;64.90
29571;DHT22;16814;52.118;11.436;2022-09-01T12:22:56;22.40;65.70
29571;DHT22;16814;52.118;11.436;2022-09-01T12:25:31;21.90;67.10
29571;DHT22;16814;52.118;11.436;2022-09-01T12:28:02;21.70;67.30
29571;DHT22;16814;52.118;11.436;2022-09-01T12:30:30;21.90;67.50
29571;DHT22;16814;52.118;11.436;2022-09-01T12:33:02;22.00;67.40
29571;DHT22;16814;52.118;11.436;2022-09-01T12:35:27;22.20;66.50
29571;DHT22;16814;52.118;11.436;2022-09-01T12:40:46;22.50;65.50
29571;DHT22;16814;52.118;11.436;2022-09-01T12:45:55;22.70;64.20
29571;DHT22;16814;52.118;11.436;2022-09-01T12:48:34;22.80;66.30
29571;DHT22;16814;52.118;11.436;2022-09-01T12:51:19;22.70;66.00
29571;DHT22;16814;52.118;11.436;2022-09-01T12:53:55;22.50;65.40
29571;DHT22;16814;52.118;11.436;2022-09-01T12:56:34;22.30;65.80
29571;DHT22;16814;52.118;11.436;2022-09-01T12:59:12;22.00;66.40
29571;DHT22;16814;52.118;11.436;2022-09-01T13:01:40;21.60;67.90
29571;DHT22;16814;52.118;11.436;2022-09-01T13:04:29;21.60;68.50
29571;DHT22;16814;52.118;11.436;2022-09-01T13:07:04;21.60;69.00
29571;DHT22;16814;52.118;11.436;2022-09-01T13:09:31;22.00;68.80
29571;DHT22;16814;52.118;11.436;2022-09-01T13:12:18;22.00;68.80
29571;DHT22;16814;52.118;11.436;2022-09-01T13:14:44;22.10;68.80
29571;DHT22;16814;52.118;11.436;2022-09-01T13:17:10;22.10;68.50
29571;DHT22;16814;52.118;11.436;2022-09-01T13:19:37;21.80;68.30
29571;DHT22;16814;52.118;11.436;2022-09-01T13:22:04;21.30;70.80
29571;DHT22;16814;52.118;11.436;2022-09-01T13:24:30;21.00;70.80
29571;DHT22;16814;52.118;11.436;2022-09-01T13:26:55;21.10;71.50
29571;DHT22;16814;52.118;11.436;2022-09-01T13:29:22;21.30;71.80
29571;DHT22;16814;52.118;11.436;2022-09-01T13:31:48;21.50;70.80
29571;DHT22;16814;52.118;11.436;2022-09-01T13:34:13;21.60;69.70
29571;DHT22;16814;52.118;11.436;2022-09-01T13:36:39;21.80;69.80
29571;DHT22;16814;52.118;11.436;2022-09-01T13:39:05;22.00;70.00
29571;DHT22;16814;52.118;11.436;2022-09-01T13:41:30;22.00;69.20
29571;DHT22;16814;52.118;11.436;2022-09-01T13:43:56;22.00;69.30
29571;DHT22;16814;52.118;11.436;2022-09-01T13:46:22;21.90;69.00
29571;DHT22;16814;52.118;11.436;2022-09-01T13:48:48;21.80;68.80
29571;DHT22;16814;52.118;11.436;2022-09-01T13:51:24;21.70;68.50
29571;DHT22;16814;52.118;11.436;2022-09-01T13:53:51;21.50;69.40
29571;DHT22;16814;52.118;11.436;2022-09-01T13:56:17;21.40;68.10
29571;DHT22;16814;52.118;11.436;2022-09-01T13:58:42;21.60;68.00
29571;DHT22;16814;52.118;11.436;2022-09-01T14:01:08;21.80;67.90
29571;DHT22;16814;52.118;11.436;2022-09-01T14:03:33;21.80;68.00
29571;DHT22;16814;52.118;11.436;2022-09-01T14:05:59;21.80;69.60
29571;DHT22;16814;52.118;11.436;2022-09-01T14:08:25;21.90;70.00
29571;DHT22;16814;52.118;11.436;2022-09-01T14:10:52;21.80;69.90
29571;DHT22;16814;52.118;11.436;2022-09-01T14:13:22;21.60;71.00
29571;DHT22;16814;52.118;11.436;2022-09-01T14:15:48;21.50;71.30
29571;DHT22;16814;52.118;11.436;2022-09-01T14:18:15;21.50;70.90
29571;DHT22;16814;52.118;11.436;2022-09-01T14:20:44;21.30;70.80
29571;DHT22;16814;52.118;11.436;2022-09-01T14:23:11;21.00;71.20
29571;DHT22;16814;52.118;11.436;2022-09-01T14:25:42;21.40;72.30
29571;DHT22;16814;52.118;11.436;2022-09-01T14:28:08;20.60;72.10
29571;DHT22;16814;52.118;11.436;2022-09-01T14:30:33;20.50;72.30
29571;DHT22;16814;52.118;11.436;2022-09-01T14:33:00;20.40;72.00
29571;DHT22;16814;52.118;11.436;2022-09-01T14:35:26;20.40;72.20
29571;DHT22;16814;52.118;11.436;2022-09-01T14:37:52;20.60;72.00
29571;DHT22;16814;52.118;11.436;2022-09-01T14:40:20;20.70;70.30
29571;DHT22;16814;52.118;11.436;2022-09-01T14:42:48;21.00;69.80
29571;DHT22;16814;52.118;11.436;2022-09-01T14:45:22;20.90;69.50
29571;DHT22;16814;52.118;11.436;2022-09-01T14:47:51;21.10;68.80
29571;DHT22;16814;52.118;11.436;2022-09-01T14:50:18;21.20;69.20
29571;DHT22;16814;52.118;11.436;2022-09-01T14:52:48;21.40;70.60
29571;DHT22;16814;52.118;11.436;2022-09-01T14:55:14;21.20;71.70
29571;DHT22;16814;52.118;11.436;2022-09-01T14:57:40;21.20;71.70
29571;DHT22;16814;52.118;11.436;2022-09-01T15:00:08;21.30;71.70
29571;DHT22;16814;52.118;11.436;2022-09-01T15:02:38;21.30;71.40
29571;DHT22;16814;52.118;11.436;2022-09-01T15:05:04;21.30;72.00
29571;DHT22;16814;52.118;11.436;2022-09-01T15:07:30;21.20;71.10
29571;DHT22;16814;52.118;11.436;2022-09-01T15:09:56;21.20;70.20
29571;DHT22;16814;52.118;11.436;2022-09-01T15:12:23;22.10;70.20
29571;DHT22;16814;52.118;11.436;2022-09-01T15:14:49;21.10;68.90
29571;DHT22;16814;52.118;11.436;2022-09-01T15:17:15;21.20;69.40
29571;DHT22;16814;52.118;11.436;2022-09-01T15:19:40;21.10;70.00
29571;DHT22;16814;52.118;11.436;2022-09-01T15:22:06;21.20;70.30
29571;DHT22;16814;52.118;11.436;2022-09-01T15:24:33;21.20;70.20
29571;DHT22;16814;52.118;11.436;2022-09-01T15:26:59;21.20;70.30
29571;DHT22;16814;52.118;11.436;2022-09-01T15:29:24;21.20;70.50
29571;DHT22;16814;52.118;11.436;2022-09-01T15:31:50;21.20;71.60
29571;DHT22;16814;52.118;11.436;2022-09-01T15:34:15;21.10;71.50
29571;DHT22;16814;52.118;11.436;2022-09-01T15:36:43;21.50;72.10
29571;DHT22;16814;52.118;11.436;2022-09-01T15:39:10;21.00;71.50
29571;DHT22;16814;52.118;11.436;2022-09-01T15:41:36;20.90;71.80
29571;DHT22;16814;52.118;11.436;2022-09-01T15:44:07;21.00;72.10
29571;DHT22;16814;52.118;11.436;2022-09-01T15:46:33;20.90;73.40
29571;DHT22;16814;52.118;11.436;2022-09-01T15:49:00;20.80;73.30
29571;DHT22;16814;52.118;11.436;2022-09-01T15:54:02;21.00;73.30
29571;DHT22;16814;52.118;11.436;2022-09-01T15:56:28;20.60;73.50
29571;DHT22;16814;52.118;11.436;2022-09-01T15:58:55;20.60;72.80
29571;DHT22;16814;52.118;11.436;2022-09-01T16:01:24;20.70;73.00
29571;DHT22;16814;52.118;11.436;2022-09-01T16:03:50;20.90;72.50
29571;DHT22;16814;52.118;11.436;2022-09-01T16:06:15;20.80;71.80
29571;DHT22;16814;52.118;11.436;2022-09-01T16:08:41;20.60;71.40
29571;DHT22;16814;52.118;11.436;2022-09-01T16:11:08;20.70;72.20
29571;DHT22;16814;52.118;11.436;2022-09-01T16:13:36;21.30;71.50
29571;DHT22;16814;52.118;11.436;2022-09-01T16:16:13;20.60;71.40
29571;DHT22;16814;52.118;11.436;2022-09-01T16:18:54;20.60;70.30
29571;DHT22;16814;52.118;11.436;2022-09-01T16:21:32;20.50;71.40
29571;DHT22;16814;52.118;11.436;2022-09-01T16:24:04;20.40;72.00
29571;DHT22;16814;52.118;11.436;2022-09-01T16:26:32;20.40;71.30
29571;DHT22;16814;52.118;11.436;2022-09-01T16:28:59;20.40;70.30